Time;durP1;ratioP1;P1;durP2;ratioP2;P2;SDS_P1;SDS_P2;PMS_P1;PMS_P2;Temp;Humidity;BMP_temperature;BMP_pressure;BME280_temperature;BME280_humidity;BME280_pressure;Samples;Min_cycle;Max_cycle;Signal;HPM_P1;HPM_P2
2021/10/24 00:01:03;;;;;;;3.57;2.80;;;;;;;7.76;64.07;96653.47;6094617;23;20203;-86
2021/10/24 00:03:29;;;;;;;4.97;2.97;;;;;;;7.73;64.44;96655.50;6094510;23;20219;-87
2021/10/24 00:05:57;;;;;;;4.73;3.00;;;;;;;7.66;64.47;96649.28;6096594;23;20511;-86
2021/10/24 00:08:24;;;;;;;2.93;2.60;;;;;;;7.75;64.09;96664.69;6096781;23;20176;-86
2021/10/24 00:10:50;;;;;;;5.80;3.40;;;;;;;7.83;63.91;96659.72;6096670;23;20191;-85
2021/10/24 00:13:17;;;;;;;4.00;3.13;;;;;;;7.85;64.25;96654.47;6096772;23;20176;-86
2021/10/24 00:15:43;;;;;;;7.73;3.10;;;;;;;7.83;64.00;96656.34;6096530;23;20239;-87
2021/10/24 00:18:10;;;;;;;3.60;2.80;;;;;;;7.83;63.95;96654.59;6096135;23;20176;-86
2021/10/24 00:20:37;;;;;;;5.90;3.60;;;;;;;7.87;63.71;96661.06;6095727;23;20180;-86
2021/10/24 00:23:04;;;;;;;5.63;3.07;;;;;;;7.90;64.04;96658.22;6096330;23;20184;-87
2021/10/24 00:25:31;;;;;;;5.43;3.77;;;;;;;7.86;63.68;96656.88;6096035;23;20200;-86
2021/10/24 00:27:58;;;;;;;4.80;3.23;;;;;;;7.85;63.78;96646.75;6096229;23;20180;-84
2021/10/24 00:30:24;;;;;;;4.43;3.17;;;;;;;7.83;63.92;96649.47;6096418;23;20202;-84
2021/10/24 00:32:51;;;;;;;4.43;2.90;;;;;;;7.73;64.37;96640.94;6096114;23;20183;-85
2021/10/24 00:35:17;;;;;;;6.43;3.20;;;;;;;7.76;63.89;96625.28;6095750;23;20203;-83
2021/10/24 00:37:44;;;;;;;8.20;3.80;;;;;;;7.77;63.89;96638.91;6095292;23;20208;-83
2021/10/24 00:40:12;;;;;;;3.60;2.80;;;;;;;7.81;64.13;96632.59;6095844;23;20266;-85
2021/10/24 00:42:45;;;;;;;3.43;3.07;;;;;;;7.65;64.38;96630.53;6095739;23;20514;-85
2021/10/24 00:45:11;;;;;;;5.27;3.57;;;;;;;7.63;64.34;96635.00;6095776;23;20200;-86
2021/10/24 00:47:38;;;;;;;5.40;3.20;;;;;;;7.58;64.26;96635.38;6095716;23;20223;-86
2021/10/24 00:50:05;;;;;;;3.80;3.17;;;;;;;7.54;64.77;96628.06;6095743;23;20184;-87
2021/10/24 00:52:32;;;;;;;4.03;2.90;;;;;;;7.36;64.82;96633.03;6095919;23;20180;-85
2021/10/24 00:54:58;;;;;;;4.33;3.50;;;;;;;7.33;65.30;96624.78;6095710;23;20207;-84
2021/10/24 00:57:26;;;;;;;4.83;3.10;;;;;;;7.40;65.06;96626.72;6095352;23;20183;-85
2021/10/24 00:59:52;;;;;;;3.63;3.00;;;;;;;7.33;65.04;96617.91;6095313;23;20187;-86
2021/10/24 01:02:19;;;;;;;3.30;2.90;;;;;;;7.47;65.15;96614.19;6095336;23;20184;-87
2021/10/24 01:04:45;;;;;;;3.97;3.00;;;;;;;7.51;64.60;96608.66;6095402;23;20224;-86
2021/10/24 01:07:17;;;;;;;4.13;3.17;;;;;;;7.51;64.65;96613.78;6095502;23;20243;-85
2021/10/24 01:09:44;;;;;;;3.57;2.87;;;;;;;7.44;64.76;96605.00;6096544;23;20164;-84
2021/10/24 01:12:11;;;;;;;4.87;3.30;;;;;;;7.45;65.18;96605.81;6095710;23;20211;-85
2021/10/24 01:14:38;;;;;;;6.77;3.60;;;;;;;7.48;64.48;96601.25;6095785;23;20510;-85
2021/10/24 01:17:05;;;;;;;4.53;3.23;;;;;;;7.39;64.46;96596.91;6095686;23;20509;-84
2021/10/24 01:19:31;;;;;;;5.93;3.20;;;;;;;7.36;65.11;96596.34;6096080;23;20183;-85
2021/10/24 01:21:59;;;;;;;5.10;2.80;;;;;;;7.30;64.99;96591.78;6095530;23;20176;-85
2021/10/24 01:24:26;;;;;;;5.77;3.53;;;;;;;7.21;65.55;96593.34;6095626;23;20808;-85
2021/10/24 01:26:54;;;;;;;7.13;3.20;;;;;;;7.11;65.92;96593.34;6095937;23;20232;-85
2021/10/24 01:29:20;;;;;;;4.73;3.17;;;;;;;7.10;65.78;96586.59;6096215;23;20260;-85
2021/10/24 01:31:47;;;;;;;4.03;2.80;;;;;;;7.07;65.97;96581.72;6096262;23;20184;-85
2021/10/24 01:34:13;;;;;;;6.97;3.57;;;;;;;6.99;66.34;96588.44;6096181;23;20533;-86
2021/10/24 01:36:40;;;;;;;3.80;3.03;;;;;;;6.93;66.56;96592.31;6095669;23;20173;-86
2021/10/24 01:39:08;;;;;;;4.47;3.10;;;;;;;6.91;66.38;96589.09;6096293;23;20180;-86
2021/10/24 01:41:35;;;;;;;4.77;2.90;;;;;;;7.06;65.99;96585.22;6095799;23;20667;-85
2021/10/24 01:44:02;;;;;;;4.13;2.90;;;;;;;7.01;66.26;96586.56;6095501;23;20196;-86
2021/10/24 01:46:28;;;;;;;3.73;2.80;;;;;;;6.99;66.37;96575.63;6095568;23;20200;-86
2021/10/24 01:48:55;;;;;;;4.20;3.10;;;;;;;6.98;66.67;96582.50;6095046;23;20191;-85
2021/10/24 01:51:22;;;;;;;4.97;3.20;;;;;;;6.94;67.03;96576.81;6095667;23;20566;-86
2021/10/24 01:53:49;;;;;;;6.03;3.53;;;;;;;6.99;66.45;96571.31;6095141;23;20219;-86
2021/10/24 01:56:18;;;;;;;4.13;3.47;;;;;;;6.97;66.64;96573.19;6095441;23;20172;-86
2021/10/24 01:58:45;;;;;;;6.97;3.40;;;;;;;6.90;67.42;96567.81;6095403;23;20187;-86
2021/10/24 02:01:11;;;;;;;6.43;3.33;;;;;;;6.83;68.09;96565.88;6095931;23;20181;-85
2021/10/24 02:03:38;;;;;;;5.47;3.40;;;;;;;6.90;67.38;96565.25;6095100;23;20227;-86
2021/10/24 02:06:04;;;;;;;3.50;2.90;;;;;;;6.93;67.48;96562.41;6095054;23;20181;-86
2021/10/24 02:08:31;;;;;;;5.33;3.40;;;;;;;7.12;67.02;96563.41;6095389;23;20183;-87
2021/10/24 02:10:57;;;;;;;5.17;3.10;;;;;;;7.23;66.68;96559.00;6095394;23;20180;-86
2021/10/24 02:13:25;;;;;;;4.37;3.13;;;;;;;7.23;66.34;96553.88;6095635;23;20180;-84
2021/10/24 02:15:52;;;;;;;5.70;3.37;;;;;;;7.16;67.07;96560.44;6095517;23;20176;-85
2021/10/24 02:18:18;;;;;;;6.03;3.37;;;;;;;7.13;66.87;96547.09;6094798;23;20489;-84
2021/10/24 02:20:44;;;;;;;6.03;3.70;;;;;;;7.08;67.22;96555.19;6094960;23;20188;-84
2021/10/24 02:23:11;;;;;;;4.40;3.40;;;;;;;7.03;67.37;96547.06;6095096;23;20518;-84
2021/10/24 02:25:38;;;;;;;5.70;3.50;;;;;;;7.10;67.58;96547.38;6094929;23;20670;-84
2021/10/24 02:28:06;;;;;;;4.33;3.73;;;;;;;7.04;67.60;96546.13;6094656;23;20196;-84
2021/10/24 02:30:34;;;;;;;5.13;3.60;;;;;;;7.06;67.89;96546.81;6095000;23;20176;-84
2021/10/24 02:33:00;;;;;;;4.07;3.60;;;;;;;7.11;67.82;96554.13;6095704;23;20176;-85
2021/10/24 02:35:27;;;;;;;5.83;3.57;;;;;;;6.97;68.10;96555.28;6094418;23;20200;-85
2021/10/24 02:37:54;;;;;;;5.93;3.90;;;;;;;6.93;68.71;96551.34;6093846;23;20431;-85
2021/10/24 02:40:21;;;;;;;4.60;3.67;;;;;;;6.84;69.31;96547.84;6095053;23;20513;-84
2021/10/24 02:42:48;;;;;;;5.87;3.80;;;;;;;6.87;69.32;96549.31;6095178;23;20191;-86
2021/10/24 02:45:15;;;;;;;5.63;4.03;;;;;;;6.74;69.90;96554.66;6094802;23;20215;-85
2021/10/24 02:47:43;;;;;;;6.73;4.30;;;;;;;6.74;69.61;96554.66;6095064;23;20207;-86
2021/10/24 02:50:10;;;;;;;6.40;4.13;;;;;;;6.70;70.11;96543.06;6094867;23;20442;-84
2021/10/24 02:52:36;;;;;;;6.07;4.00;;;;;;;6.73;70.28;96545.38;6094814;23;20232;-83
2021/10/24 02:55:05;;;;;;;4.93;4.27;;;;;;;6.80;70.01;96536.22;6094928;23;20196;-84
2021/10/24 02:57:31;;;;;;;6.70;4.30;;;;;;;6.74;70.34;96538.47;6094639;23;20454;-83
2021/10/24 02:59:58;;;;;;;4.80;4.27;;;;;;;6.72;70.40;96530.16;6095038;23;20645;-85
2021/10/24 03:02:24;;;;;;;6.50;4.37;;;;;;;6.72;70.64;96537.81;6094215;23;20665;-83
2021/10/24 03:04:52;;;;;;;6.10;4.23;;;;;;;6.68;71.13;96528.78;6094789;23;20200;-83
2021/10/24 03:07:18;;;;;;;6.03;4.07;;;;;;;6.62;71.09;96531.84;6094648;23;20352;-83
2021/10/24 03:09:45;;;;;;;6.53;4.77;;;;;;;6.65;71.09;96522.16;6094688;23;20187;-86
2021/10/24 03:12:12;;;;;;;5.60;4.13;;;;;;;6.71;70.52;96529.34;6095046;23;20491;-86
2021/10/24 03:14:38;;;;;;;7.07;4.10;;;;;;;6.66;70.90;96520.41;6094424;23;20211;-86
2021/10/24 03:17:04;;;;;;;6.20;4.30;;;;;;;6.66;70.64;96523.78;6094497;23;20172;-85
2021/10/24 03:19:31;;;;;;;6.30;4.37;;;;;;;6.62;71.04;96530.09;6094459;23;20180;-85
2021/10/24 03:21:59;;;;;;;4.93;4.20;;;;;;;6.58;71.43;96526.97;6094291;23;20180;-86
2021/10/24 03:24:26;;;;;;;6.47;4.20;;;;;;;6.62;71.03;96521.59;6094289;23;20287;-86
2021/10/24 03:26:52;;;;;;;6.70;4.53;;;;;;;6.64;71.22;96537.66;6094835;23;20203;-86
2021/10/24 03:29:18;;;;;;;4.57;4.10;;;;;;;6.74;70.73;96539.28;6094437;23;20187;-85
2021/10/24 03:31:45;;;;;;;5.53;4.90;;;;;;;6.70;70.62;96532.84;6094737;23;20650;-86
2021/10/24 03:34:12;;;;;;;4.50;3.97;;;;;;;6.66;70.89;96533.22;6094439;23;20558;-87
2021/10/24 03:36:38;;;;;;;4.83;4.33;;;;;;;6.62;71.09;96527.53;6093666;23;20180;-85
2021/10/24 03:39:06;;;;;;;6.10;4.47;;;;;;;6.60;71.31;96526.84;6094429;23;20180;-86
2021/10/24 03:41:32;;;;;;;5.27;4.07;;;;;;;6.50;71.52;96533.69;6094397;23;20641;-86
2021/10/24 03:43:59;;;;;;;5.37;4.50;;;;;;;6.56;71.52;96539.09;6094511;23;20207;-85
2021/10/24 03:46:25;;;;;;;6.07;4.50;;;;;;;6.61;71.23;96535.34;6094225;23;20642;-86
2021/10/24 03:48:52;;;;;;;5.43;4.47;;;;;;;6.65;70.92;96534.97;6094678;23;20239;-86
2021/10/24 03:51:18;;;;;;;7.63;4.80;;;;;;;6.64;71.21;96533.34;6094462;23;20216;-86
2021/10/24 03:53:45;;;;;;;5.30;4.80;;;;;;;6.56;71.41;96528.03;6094824;23;20674;-85
2021/10/24 03:56:13;;;;;;;6.13;4.40;;;;;;;6.57;71.47;96534.78;6094313;23;20176;-86
2021/10/24 03:58:39;;;;;;;6.13;4.40;;;;;;;6.41;72.62;96531.88;6094684;23;20176;-87
2021/10/24 04:01:05;;;;;;;5.33;4.83;;;;;;;6.43;72.39;96541.06;6094473;23;20180;-86
2021/10/24 04:03:32;;;;;;;5.87;5.03;;;;;;;6.45;72.15;96535.81;6094553;23;20188;-85
2021/10/24 04:05:59;;;;;;;6.73;4.80;;;;;;;6.53;71.79;96533.44;6094422;23;20219;-85
2021/10/24 04:08:25;;;;;;;7.63;4.60;;;;;;;6.50;72.18;96536.25;6094543;23;20226;-86
2021/10/24 04:10:52;;;;;;;7.27;4.67;;;;;;;6.42;72.35;96528.38;6094894;23;20180;-85
2021/10/24 04:13:20;;;;;;;7.70;5.10;;;;;;;6.39;73.04;96533.75;6095188;23;20183;-86
2021/10/24 04:15:47;;;;;;;5.93;4.70;;;;;;;6.35;73.08;96524.75;6095258;23;20506;-85
2021/10/24 04:18:13;;;;;;;6.73;5.10;;;;;;;6.29;72.97;96531.16;6096656;23;20188;-87
2021/10/24 04:20:40;;;;;;;6.73;5.10;;;;;;;6.45;72.79;96533.25;6095735;23;20604;-85
2021/10/24 04:23:07;;;;;;;6.20;5.13;;;;;;;6.50;72.52;96526.00;6093912;23;20581;-85
2021/10/24 04:25:33;;;;;;;5.20;4.70;;;;;;;6.54;71.92;96535.84;6093687;23;20559;-86
2021/10/24 04:28:00;;;;;;;6.93;4.90;;;;;;;6.52;72.36;96532.63;6093401;23;20207;-86
2021/10/24 04:30:28;;;;;;;6.03;5.20;;;;;;;6.58;72.05;96524.41;6093497;23;20176;-85
2021/10/24 04:32:54;;;;;;;7.13;4.73;;;;;;;6.45;72.39;96525.59;6093719;23;20177;-86
2021/10/24 04:35:21;;;;;;;6.63;5.10;;;;;;;6.36;73.00;96529.69;6093472;23;20231;-85
2021/10/24 04:37:48;;;;;;;5.63;5.03;;;;;;;6.17;73.85;96524.47;6092537;23;20231;-86
2021/10/24 04:40:15;;;;;;;6.20;5.10;;;;;;;6.05;74.20;96518.63;6093536;23;20188;-86
2021/10/24 04:42:41;;;;;;;5.90;5.30;;;;;;;6.06;74.46;96515.16;6093314;23;20499;-85
2021/10/24 04:45:09;;;;;;;5.67;5.10;;;;;;;6.01;74.87;96511.34;6093160;23;20204;-85
2021/10/24 04:47:37;;;;;;;6.67;5.00;;;;;;;6.10;74.60;96515.72;6092666;23;20197;-85
2021/10/24 04:50:04;;;;;;;7.97;5.60;;;;;;;6.15;74.49;96511.03;6094081;23;20188;-85
2021/10/24 04:52:31;;;;;;;6.60;5.80;;;;;;;6.14;74.31;96504.31;6095317;23;20196;-86
2021/10/24 04:54:57;;;;;;;7.70;6.13;;;;;;;6.14;74.36;96510.22;6095159;23;20204;-86
2021/10/24 04:57:23;;;;;;;9.53;6.07;;;;;;;6.15;74.52;96511.03;6094306;23;20231;-85
2021/10/24 04:59:50;;;;;;;8.20;6.37;;;;;;;6.23;73.79;96508.66;6095099;23;20183;-86
2021/10/24 05:02:16;;;;;;;8.20;6.47;;;;;;;6.26;73.58;96510.94;6094572;23;20247;-85
2021/10/24 05:04:44;;;;;;;7.23;5.43;;;;;;;6.21;73.73;96502.84;6095036;23;20223;-86
2021/10/24 05:07:10;;;;;;;7.00;5.97;;;;;;;6.24;73.63;96503.41;6094730;23;20227;-86
2021/10/24 05:09:37;;;;;;;6.40;5.57;;;;;;;6.21;73.60;96498.53;6095156;23;20180;-86
2021/10/24 05:12:04;;;;;;;5.83;5.20;;;;;;;6.12;74.04;96490.84;6094894;23;20180;-85
2021/10/24 05:14:30;;;;;;;5.97;5.20;;;;;;;6.11;74.05;96502.81;6094864;23;20203;-85
2021/10/24 05:16:57;;;;;;;9.23;6.07;;;;;;;6.23;73.91;96495.84;6094983;23;20516;-84
2021/10/24 05:19:23;;;;;;;8.13;5.00;;;;;;;6.34;73.50;96488.13;6095407;23;20176;-84
2021/10/24 05:21:51;;;;;;;6.47;5.53;;;;;;;6.35;73.41;96492.28;6094959;23;20665;-84
2021/10/24 05:24:17;;;;;;;6.97;5.13;;;;;;;6.40;73.27;96489.34;6095083;23;20200;-85
2021/10/24 05:26:45;;;;;;;7.07;5.33;;;;;;;6.52;72.53;96486.56;6094827;23;20228;-84
2021/10/24 05:29:11;;;;;;;8.43;4.77;;;;;;;6.46;72.69;96481.16;6094690;23;20196;-83
2021/10/24 05:31:38;;;;;;;7.07;5.53;;;;;;;6.35;72.77;96474.38;6095254;23;20180;-84
2021/10/24 05:34:04;;;;;;;8.00;5.37;;;;;;;6.27;73.32;96471.66;6095074;23;20200;-84
2021/10/24 05:36:31;;;;;;;5.97;5.27;;;;;;;6.30;73.08;96468.03;6094446;23;20181;-83
2021/10/24 05:38:59;;;;;;;8.27;5.30;;;;;;;6.31;72.89;96467.91;6095386;23;20172;-82
2021/10/24 05:41:26;;;;;;;7.00;5.40;;;;;;;6.40;72.54;96468.88;6094969;23;20184;-83
2021/10/24 05:43:54;;;;;;;5.87;4.93;;;;;;;6.45;72.59;96470.13;6095061;23;20223;-85
2021/10/24 05:46:21;;;;;;;6.97;5.57;;;;;;;6.46;72.50;96471.75;6095328;23;20180;-83
2021/10/24 05:48:47;;;;;;;6.93;5.87;;;;;;;6.46;72.32;96473.47;6095101;23;20534;-86
2021/10/24 05:51:15;;;;;;;7.77;5.83;;;;;;;6.26;73.17;96474.34;6095038;23;20184;-84
2021/10/24 05:53:41;;;;;;;8.07;5.97;;;;;;;6.26;73.09;96471.78;6095096;23;20730;-84
2021/10/24 05:56:09;;;;;;;6.03;5.40;;;;;;;6.45;72.21;96476.97;6092326;23;20208;-83
2021/10/24 05:58:35;;;;;;;6.70;5.27;;;;;;;6.44;71.97;96481.28;6094107;23;20527;-83
2021/10/24 06:01:02;;;;;;;5.50;5.00;;;;;;;6.32;72.58;96477.22;6094297;23;20176;-84
2021/10/24 06:03:28;;;;;;;6.17;5.37;;;;;;;6.24;73.16;96495.72;6092067;23;20672;-84
2021/10/24 06:05:55;;;;;;;7.47;5.63;;;;;;;6.22;72.91;96484.81;6093101;23;20180;-83
2021/10/24 06:08:23;;;;;;;5.73;5.17;;;;;;;6.17;73.05;96488.69;6092369;23;20235;-83
2021/10/24 06:10:52;;;;;;;6.23;5.33;;;;;;;6.20;72.92;96485.88;6093374;23;20180;-85
2021/10/24 06:13:20;;;;;;;6.23;5.63;;;;;;;6.14;73.66;96492.34;6094328;23;20177;-83
2021/10/24 06:15:46;;;;;;;5.90;5.30;;;;;;;6.04;74.07;96499.13;6094102;23;20180;-83
2021/10/24 06:18:14;;;;;;;8.00;5.50;;;;;;;6.12;73.97;96501.88;6093350;23;20184;-83
2021/10/24 06:20:43;;;;;;;6.13;5.27;;;;;;;6.24;73.59;96502.59;6095415;23;20494;-86
2021/10/24 06:23:10;;;;;;;5.87;5.27;;;;;;;6.48;72.33;96504.88;6096963;23;20189;-86
2021/10/24 06:25:38;;;;;;;6.77;5.17;;;;;;;6.98;71.21;96504.88;6097010;23;20208;-85
2021/10/24 06:28:04;;;;;;;6.70;5.30;;;;;;;7.18;69.09;96509.09;6097406;23;20200;-85
2021/10/24 06:30:32;;;;;;;6.60;5.03;;;;;;;7.18;69.48;96515.03;6096420;23;20531;-86
2021/10/24 06:32:59;;;;;;;5.70;5.00;;;;;;;6.94;69.74;96523.06;6096303;23;20208;-85
2021/10/24 06:35:25;;;;;;;6.37;5.60;;;;;;;6.82;70.36;96525.84;6094452;23;20252;-83
2021/10/24 06:37:52;;;;;;;5.43;4.93;;;;;;;6.75;70.92;96519.63;6094946;23;20718;-86
2021/10/24 06:40:19;;;;;;;6.10;5.50;;;;;;;6.78;71.07;96520.19;6095193;23;20164;-83
2021/10/24 06:42:45;;;;;;;6.40;4.73;;;;;;;6.89;70.64;96520.09;6095358;23;20258;-83
2021/10/24 06:45:12;;;;;;;6.57;5.10;;;;;;;7.00;70.09;96526.84;6093969;23;20204;-85
2021/10/24 06:47:40;;;;;;;6.77;5.67;;;;;;;7.19;69.87;96520.97;6093013;23;20180;-85
2021/10/24 06:50:09;;;;;;;6.70;5.50;;;;;;;7.39;68.84;96525.16;6094863;23;20181;-84
2021/10/24 06:52:35;;;;;;;6.50;5.13;;;;;;;7.70;67.35;96528.41;6095263;23;20241;-84
2021/10/24 06:55:02;;;;;;;6.07;4.80;;;;;;;8.20;66.04;96525.66;6095047;23;20200;-85
2021/10/24 06:57:29;;;;;;;6.00;5.30;;;;;;;8.52;64.27;96525.31;6097051;23;20176;-84
2021/10/24 06:59:55;;;;;;;5.43;4.87;;;;;;;9.07;62.82;96523.59;6098018;23;20189;-87
2021/10/24 07:02:22;;;;;;;4.90;4.40;;;;;;;9.40;61.42;96529.91;6097637;23;20243;-86
2021/10/24 07:04:50;;;;;;;4.97;4.47;;;;;;;9.74;59.97;96524.09;6097026;23;20716;-85
2021/10/24 07:07:20;;;;;;;5.20;4.80;;;;;;;10.00;58.83;96523.19;6096825;23;20180;-86
2021/10/24 07:09:49;;;;;;;5.17;4.67;;;;;;;10.15;58.01;96518.28;6098898;23;20188;-86
2021/10/24 07:12:16;;;;;;;6.03;5.00;;;;;;;10.51;58.78;96519.03;6100901;23;20184;-86
2021/10/24 07:14:42;;;;;;;5.50;4.53;;;;;;;10.66;56.52;96511.53;6096346;23;20251;-85
2021/10/24 07:17:09;;;;;;;5.70;4.20;;;;;;;10.50;56.92;96517.41;6097134;23;20183;-86
2021/10/24 07:19:35;;;;;;;4.60;4.17;;;;;;;10.41;56.70;96518.31;6097478;23;20676;-87
2021/10/24 07:22:03;;;;;;;5.80;4.27;;;;;;;10.50;56.61;96516.59;6096781;23;20176;-86
2021/10/24 07:24:30;;;;;;;5.43;4.10;;;;;;;10.71;56.19;96512.69;6097211;23;20732;-86
2021/10/24 07:26:56;;;;;;;5.73;4.23;;;;;;;10.72;55.57;96514.31;6098246;23;20164;-84
2021/10/24 07:29:23;;;;;;;5.40;3.83;;;;;;;10.79;55.69;96516.25;6097081;23;20196;-86
2021/10/24 07:31:50;;;;;;;4.30;3.90;;;;;;;10.68;55.19;96514.75;6098420;23;20176;-87
2021/10/24 07:34:16;;;;;;;4.83;3.77;;;;;;;10.70;55.45;96516.22;6098060;23;20200;-86
2021/10/24 07:36:43;;;;;;;6.60;3.80;;;;;;;10.95;55.36;96522.28;6096078;23;20183;-85
2021/10/24 07:39:10;;;;;;;3.90;3.60;;;;;;;11.13;54.48;96517.03;6096324;23;20522;-86
2021/10/24 07:41:37;;;;;;;3.80;3.40;;;;;;;11.25;53.96;96513.19;6098929;23;20176;-86
2021/10/24 07:44:06;;;;;;;4.10;3.77;;;;;;;11.59;53.39;96527.75;6099438;23;20207;-86
2021/10/24 07:46:32;;;;;;;6.00;3.57;;;;;;;11.71;53.25;96518.75;6099577;23;20183;-87
2021/10/24 07:48:58;;;;;;;3.90;3.47;;;;;;;11.56;52.84;96520.31;6097701;23;20196;-86
2021/10/24 07:51:25;;;;;;;4.70;3.53;;;;;;;11.74;53.33;96529.53;6097186;23;20180;-86
2021/10/24 07:53:52;;;;;;;3.93;3.53;;;;;;;11.47;53.03;96524.69;6104081;23;20203;-85
2021/10/24 07:56:20;;;;;;;4.80;3.30;;;;;;;11.50;52.88;96521.78;6153396;23;20155;-86
2021/10/24 07:58:47;;;;;;;8.47;3.50;;;;;;;11.61;53.39;96516.31;6153365;23;20198;-86
2021/10/24 08:01:15;;;;;;;5.73;3.37;;;;;;;11.86;52.01;96522.34;6154952;23;20181;-85
2021/10/24 08:03:41;;;;;;;4.27;3.30;;;;;;;12.18;52.67;96531.03;6154837;23;20210;-85
2021/10/24 08:06:32;;;;;;;;;;;;;;;;;;;;;
2021/10/24 08:09:01;;;;;;;4.03;3.57;;;;;;;11.70;52.54;96527.47;6149765;23;20269;-86
2021/10/24 08:11:31;;;;;;;5.43;3.10;;;;;;;11.79;52.58;96533.44;6156572;23;20652;-84
2021/10/24 08:14:02;;;;;;;3.77;3.33;;;;;;;11.87;52.88;96526.53;6155415;23;20195;-83
2021/10/24 08:16:28;;;;;;;5.30;3.27;;;;;;;11.91;52.16;96522.66;6157106;23;20175;-86
2021/10/24 08:18:55;;;;;;;5.57;3.60;;;;;;;11.76;52.45;96525.06;6156093;23;20249;-86
2021/10/24 08:21:22;;;;;;;4.07;3.33;;;;;;;11.86;52.20;96526.69;6158034;23;20178;-85
2021/10/24 08:23:49;;;;;;;3.87;3.43;;;;;;;11.95;52.52;96521.34;6157453;23;20217;-84
2021/10/24 08:26:17;;;;;;;4.13;3.17;;;;;;;11.91;52.56;96521.84;6158550;23;20178;-85
2021/10/24 08:28:45;;;;;;;3.60;3.30;;;;;;;11.46;52.79;96523.06;6158395;23;20195;-86
2021/10/24 08:31:12;;;;;;;4.90;3.40;;;;;;;11.42;52.74;96519.19;6158075;23;20174;-84
2021/10/24 08:33:39;;;;;;;4.77;3.50;;;;;;;11.62;53.19;96519.69;6160179;23;20227;-86
2021/10/24 08:36:06;;;;;;;3.90;3.50;;;;;;;11.74;52.85;96519.22;6159818;23;20174;-84
2021/10/24 08:38:34;;;;;;;3.80;3.50;;;;;;;11.67;52.73;96526.00;6156400;23;20171;-85
2021/10/24 08:41:02;;;;;;;4.00;3.40;;;;;;;11.73;53.26;96527.13;6159601;23;20187;-85
2021/10/24 08:43:31;;;;;;;3.80;3.33;;;;;;;11.86;52.06;96519.75;6158985;23;20179;-86
2021/10/24 08:45:59;;;;;;;4.13;3.47;;;;;;;11.99;53.45;96525.22;6156327;23;20206;-86
2021/10/24 08:48:25;;;;;;;49.33;7.03;;;;;;;12.18;54.50;96515.53;6155440;23;20199;-80
2021/10/24 08:50:52;;;;;;;4.10;3.47;;;;;;;12.40;52.74;96520.81;6156395;23;20179;-82
2021/10/24 08:53:24;;;;;;;94.90;9.93;;;;;;;12.80;52.50;96521.69;6156263;23;20175;-80
2021/10/24 08:55:50;;;;;;;29.93;5.10;;;;;;;13.01;52.45;96515.94;6185086;23;20217;-82
2021/10/24 08:58:18;;;;;;;37.33;6.70;;;;;;;13.23;51.64;96515.22;6185781;23;20179;-78
2021/10/24 09:00:44;;;;;;;9.17;4.43;;;;;;;13.22;50.86;96515.41;6186772;23;20185;-80
2021/10/24 09:03:12;;;;;;;10.87;4.10;;;;;;;13.28;51.56;96510.34;6185835;23;20197;-79
2021/10/24 09:05:40;;;;;;;13.97;4.57;;;;;;;13.35;49.69;96511.28;6185451;23;20217;-82
2021/10/24 09:08:09;;;;;;;4.50;3.37;;;;;;;13.24;50.81;96514.25;6185118;23;20170;-79
2021/10/24 09:10:37;;;;;;;4.53;3.50;;;;;;;12.94;50.12;96517.59;6186325;23;20181;-79
2021/10/24 09:13:05;;;;;;;4.57;3.53;;;;;;;12.91;52.43;96517.91;6178446;23;20206;-82
2021/10/24 09:15:48;;;;;;;4.03;3.63;;;;;;;13.05;50.37;96514.66;6155437;23;20270;-81
2021/10/24 09:18:17;;;;;;;4.23;3.47;;;;;;;12.72;49.78;96516.53;6151829;23;20182;-83
2021/10/24 09:20:44;;;;;;;4.83;3.90;;;;;;;12.62;50.47;96523.69;6154750;23;20765;-82
2021/10/24 09:23:12;;;;;;;4.20;3.80;;;;;;;12.59;51.15;96521.41;6154723;23;20182;-82
2021/10/24 09:25:50;;;;;;;3.97;3.27;;;;;;;12.70;50.71;96526.25;6155131;23;20202;-85
2021/10/24 09:28:20;;;;;;;3.90;3.30;;;;;;;12.47;51.19;96528.72;6154702;23;20656;-85
2021/10/24 09:30:47;;;;;;;3.70;3.20;;;;;;;12.54;51.46;96524.50;6154953;23;20159;-82
2021/10/24 09:33:17;;;;;;;3.73;3.43;;;;;;;12.55;50.53;96525.31;6156045;23;20186;-83
2021/10/24 09:35:46;;;;;;;3.83;3.50;;;;;;;12.31;51.27;96528.75;6154090;23;20203;-84
2021/10/24 09:38:15;;;;;;;5.60;3.80;;;;;;;12.23;51.42;96524.41;6154767;23;20265;-81
2021/10/24 09:40:46;;;;;;;4.77;3.63;;;;;;;12.36;51.91;96513.56;6156596;23;20175;-82
2021/10/24 09:43:17;;;;;;;4.77;2.97;;;;;;;12.51;52.16;96516.28;6156493;23;20155;-83
2021/10/24 09:45:45;;;;;;;3.43;2.97;;;;;;;12.58;51.16;96518.03;6155824;23;20704;-83
2021/10/24 09:48:13;;;;;;;4.43;3.63;;;;;;;12.74;50.91;96515.41;6155592;23;20179;-84
2021/10/24 09:50:46;;;;;;;4.17;3.23;;;;;;;12.62;51.48;96510.75;6156146;23;20198;-84
2021/10/24 09:53:15;;;;;;;5.20;3.40;;;;;;;12.74;50.84;96512.00;6157175;23;20164;-85
2021/10/24 09:55:43;;;;;;;4.13;2.90;;;;;;;12.86;51.08;96513.28;6154281;23;20206;-84
2021/10/24 09:58:12;;;;;;;3.13;2.83;;;;;;;12.80;50.57;96516.50;6154772;23;20691;-85
2021/10/24 10:00:40;;;;;;;3.60;2.70;;;;;;;12.62;50.10;96511.56;6155851;23;20171;-83
2021/10/24 10:03:07;;;;;;;3.93;2.50;;;;;;;12.64;51.37;96514.00;6156095;23;20234;-83
2021/10/24 10:05:51;;;;;;;3.50;2.60;;;;;;;12.70;51.27;96511.53;6155852;23;20199;-85
2021/10/24 10:08:19;;;;;;;3.93;2.70;;;;;;;12.59;50.29;96511.91;6155032;23;20166;-82
2021/10/24 10:10:50;;;;;;;3.80;2.60;;;;;;;12.77;50.28;96511.69;6155018;23;20565;-85
2021/10/24 10:13:21;;;;;;;2.90;2.60;;;;;;;12.70;50.13;96503.78;6154438;23;20470;-85
2021/10/24 10:15:49;;;;;;;3.43;2.80;;;;;;;12.79;50.50;96507.97;6154220;23;20675;-82
2021/10/24 10:18:16;;;;;;;2.90;2.40;;;;;;;13.01;50.52;96503.03;6153728;23;20549;-84
2021/10/24 10:20:47;;;;;;;5.03;2.47;;;;;;;13.21;50.22;96498.28;6156039;23;20171;-85
2021/10/24 10:23:16;;;;;;;2.70;2.50;;;;;;;13.24;49.17;96497.94;6155077;23;20175;-84
2021/10/24 10:25:44;;;;;;;3.00;2.70;;;;;;;13.09;49.49;96496.00;6155233;23;20206;-85
2021/10/24 10:28:14;;;;;;;2.77;2.57;;;;;;;13.00;49.35;96498.81;6155419;23;20179;-85
2021/10/24 10:30:42;;;;;;;3.00;2.70;;;;;;;12.91;49.11;96492.06;6156123;23;20202;-85
2021/10/24 10:33:32;;;;;;;3.60;2.60;;;;;;;12.87;49.57;96491.63;6155254;23;20178;-85
2021/10/24 10:36:00;;;;;;;2.63;2.43;;;;;;;12.83;49.26;96489.53;6155583;23;20187;-86
2021/10/24 10:38:33;;;;;;;2.90;2.47;;;;;;;12.68;48.93;96494.59;6155945;23;20560;-85
2021/10/24 10:40:59;;;;;;;2.93;2.30;;;;;;;12.65;50.89;96495.75;6156052;23;20171;-85
2021/10/24 10:43:26;;;;;;;4.43;2.67;;;;;;;12.67;49.40;96491.22;6155641;23;20182;-85
2021/10/24 10:45:55;;;;;;;5.00;2.60;;;;;;;12.71;49.55;96489.88;6154151;23;20179;-82
2021/10/24 10:48:40;;;;;;;3.03;2.73;;;;;;;12.77;49.20;96486.63;6154053;23;20183;-84
2021/10/24 10:51:19;;;;;;;2.83;2.50;;;;;;;12.69;49.04;96489.28;6154618;23;20174;-83
2021/10/24 10:54:06;;;;;;;4.77;2.50;;;;;;;12.75;49.76;96473.06;6154408;23;20684;-84
2021/10/24 10:56:48;;;;;;;2.63;2.13;;;;;;;12.84;49.66;96473.88;6154528;23;20209;-84
2021/10/24 10:59:32;;;;;;;2.83;2.50;;;;;;;12.68;48.93;96474.75;6150367;23;20202;-85
2021/10/24 11:02:23;;;;;;;2.90;2.40;;;;;;;12.85;49.52;96469.50;6155430;23;20178;-84
2021/10/24 11:04:51;;;;;;;2.60;2.40;;;;;;;13.06;49.63;96459.38;6147352;23;20205;-84
2021/10/24 11:07:38;;;;;;;2.70;2.50;;;;;;;13.07;47.44;96461.78;6155164;23;20243;-84
2021/10/24 11:10:08;;;;;;;3.10;2.57;;;;;;;13.07;48.98;96458.41;6157581;23;20195;-82
2021/10/24 11:12:37;;;;;;;4.37;2.40;;;;;;;13.08;50.03;96463.38;6156812;23;20175;-81
2021/10/24 11:15:20;;;;;;;3.90;2.93;;;;;;;13.25;48.65;96458.97;6156092;23;20203;-82
2021/10/24 11:17:48;;;;;;;2.77;2.43;;;;;;;13.37;48.94;96449.03;6150975;23;20179;-84
2021/10/24 11:20:28;;;;;;;3.40;2.60;;;;;;;13.42;48.32;96454.50;6156234;23;20174;-82
2021/10/24 11:23:01;;;;;;;2.63;2.43;;;;;;;13.46;47.62;96445.41;6158213;23;20612;-84
2021/10/24 11:25:36;;;;;;;2.43;2.23;;;;;;;13.37;47.61;96449.03;6158491;23;20203;-84
2021/10/24 11:28:12;;;;;;;3.50;2.27;;;;;;;13.34;47.66;96445.00;6157420;23;20159;-83
2021/10/24 11:30:39;;;;;;;2.93;2.63;;;;;;;13.37;47.57;96439.47;6157834;23;20182;-83
2021/10/24 11:33:07;;;;;;;2.60;2.40;;;;;;;13.47;48.67;96437.44;6154682;23;20175;-85
2021/10/24 11:35:35;;;;;;;2.87;2.43;;;;;;;13.54;47.78;96434.97;6153881;23;20205;-84
2021/10/24 11:38:07;;;;;;;3.30;2.70;;;;;;;13.56;48.10;96430.44;6154336;23;20739;-85
2021/10/24 11:40:37;;;;;;;2.70;2.50;;;;;;;13.58;47.51;96433.66;6154911;23;20162;-84
2021/10/24 11:43:10;;;;;;;3.07;2.57;;;;;;;13.63;47.29;96430.56;6154529;23;20221;-85